বাংলা English Search

Weather may remain dry with temporary partly cloudy sky over the country.

TAF

TAF VGHS 261700Z 2618/2724 VRB03KT 2500 HZ/BR NSC
  BECMG 2700/2702 00000KT 1500 BR NSC
  BECMG 2706/2708 32008KT 3500 HZ NSC
  BECMG 2710/2712 30008KT 4000 HZ NSC
  BECMG 2718/2720 VRB03KT 3000 HZ NSC=

TAF VGEG 261700Z 2618/2724 34008KT 3200 HZ SCT012 SCT120
  TEMPO 2623/2702 00000KT 2000 BR/FG BKN008 BKN120
  BECMG 2702/2704 06010KT 5000 HZ NSC
  BECMG 2710/2712 32010KT 4000 HZ NSC
  BECMG 2721/2723 00000KT 2000 BR BKN008 BKN100=

TAF VGSY 261000Z 2612/2718 28005KT 3500 HZ FEW015 
BECMG 2618/2620 00000KT 3000 HZ NSC 
BECMG 2621/2623 00000KT 2500 BR NSC 
TEMPO 2700/2703 00000KT 1500 BR SCT012 
BECMG 2703/2705 09005KT 3500 HZ FEW015 =